sensor_id;sensor_type;location;lat;lon;timestamp;pressure;altitude;pressure_sealevel;temperature;humidity
79617;BME280;69097;52.132;5.422;2023-06-22T00:02:25;102076.25;;;19.20;74.47
79617;BME280;69097;52.132;5.422;2023-06-22T00:04:52;102070.69;;;19.16;74.22
79617;BME280;69097;52.132;5.422;2023-06-22T00:07:18;102076.50;;;19.13;74.30
79617;BME280;69097;52.132;5.422;2023-06-22T00:09:45;102081.88;;;19.11;74.09
79617;BME280;69097;52.132;5.422;2023-06-22T00:12:11;102085.63;;;19.08;74.42
79617;BME280;69097;52.132;5.422;2023-06-22T00:14:38;102084.97;;;19.04;74.78
79617;BME280;69097;52.132;5.422;2023-06-22T00:17:04;102081.00;;;19.01;74.94
79617;BME280;69097;52.132;5.422;2023-06-22T00:19:31;102081.59;;;18.96;74.95
79617;BME280;69097;52.132;5.422;2023-06-22T00:21:59;102075.25;;;18.92;74.98
79617;BME280;69097;52.132;5.422;2023-06-22T00:24:26;102077.75;;;18.90;75.26
79617;BME280;69097;52.132;5.422;2023-06-22T00:26:53;102077.41;;;18.88;75.33
79617;BME280;69097;52.132;5.422;2023-06-22T00:29:20;102076.16;;;18.89;74.81
79617;BME280;69097;52.132;5.422;2023-06-22T00:31:49;102068.53;;;18.86;74.81
79617;BME280;69097;52.132;5.422;2023-06-22T00:34:15;102062.19;;;18.82;75.21
79617;BME280;69097;52.132;5.422;2023-06-22T00:36:42;102061.50;;;18.78;75.20
79617;BME280;69097;52.132;5.422;2023-06-22T00:39:09;102062.91;;;18.74;74.98
79617;BME280;69097;52.132;5.422;2023-06-22T00:41:36;102060.53;;;18.72;75.52
79617;BME280;69097;52.132;5.422;2023-06-22T00:44:02;102058.91;;;18.71;75.21
79617;BME280;69097;52.132;5.422;2023-06-22T00:46:30;102063.50;;;18.69;75.27
79617;BME280;69097;52.132;5.422;2023-06-22T00:48:56;102059.50;;;18.66;75.54
79617;BME280;69097;52.132;5.422;2023-06-22T00:51:23;102059.19;;;18.64;74.48
79617;BME280;69097;52.132;5.422;2023-06-22T00:53:51;102049.19;;;18.60;75.78
79617;BME280;69097;52.132;5.422;2023-06-22T00:56:20;102055.78;;;18.57;76.23
79617;BME280;69097;52.132;5.422;2023-06-22T00:58:51;102053.88;;;18.54;75.99
79617;BME280;69097;52.132;5.422;2023-06-22T01:01:19;102051.97;;;18.51;75.96
79617;BME280;69097;52.132;5.422;2023-06-22T01:03:50;102050.00;;;18.48;76.23
79617;BME280;69097;52.132;5.422;2023-06-22T01:06:34;102042.75;;;18.47;76.21
79617;BME280;69097;52.132;5.422;2023-06-22T01:09:31;102044.13;;;18.42;76.03
79617;BME280;69097;52.132;5.422;2023-06-22T01:12:04;102049.56;;;18.36;76.27
79617;BME280;69097;52.132;5.422;2023-06-22T01:14:47;102049.81;;;18.29;76.40
79617;BME280;69097;52.132;5.422;2023-06-22T01:17:19;102062.09;;;18.26;76.87
79617;BME280;69097;52.132;5.422;2023-06-22T01:19:49;102066.03;;;18.29;76.50
79617;BME280;69097;52.132;5.422;2023-06-22T01:22:30;102068.22;;;18.25;76.57
79617;BME280;69097;52.132;5.422;2023-06-22T01:27:53;102058.69;;;18.19;76.62
79617;BME280;69097;52.132;5.422;2023-06-22T01:30:24;102048.81;;;18.11;76.81
79617;BME280;69097;52.132;5.422;2023-06-22T01:32:54;102051.88;;;18.04;76.75
79617;BME280;69097;52.132;5.422;2023-06-22T01:35:22;102054.06;;;18.00;76.83
79617;BME280;69097;52.132;5.422;2023-06-22T01:37:48;102043.03;;;18.02;76.08
79617;BME280;69097;52.132;5.422;2023-06-22T01:40:15;102044.38;;;17.97;76.99
79617;BME280;69097;52.132;5.422;2023-06-22T01:42:42;102046.41;;;17.97;76.13
79617;BME280;69097;52.132;5.422;2023-06-22T01:45:10;102048.59;;;17.93;77.15
79617;BME280;69097;52.132;5.422;2023-06-22T01:47:39;102050.63;;;17.92;76.96
79617;BME280;69097;52.132;5.422;2023-06-22T01:50:06;102044.63;;;17.90;77.13
79617;BME280;69097;52.132;5.422;2023-06-22T01:52:32;102049.84;;;17.92;76.39
79617;BME280;69097;52.132;5.422;2023-06-22T01:55:00;102045.06;;;17.89;77.07
79617;BME280;69097;52.132;5.422;2023-06-22T01:57:27;102037.81;;;17.88;77.14
79617;BME280;69097;52.132;5.422;2023-06-22T02:00:03;102035.91;;;17.85;77.02
79617;BME280;69097;52.132;5.422;2023-06-22T02:02:39;102042.47;;;17.82;77.17
79617;BME280;69097;52.132;5.422;2023-06-22T02:05:09;102036.13;;;17.78;77.58
79617;BME280;69097;52.132;5.422;2023-06-22T02:07:42;102023.63;;;17.75;77.24
79617;BME280;69097;52.132;5.422;2023-06-22T02:10:13;102028.94;;;17.73;77.62
79617;BME280;69097;52.132;5.422;2023-06-22T02:12:41;102032.69;;;17.70;77.93
79617;BME280;69097;52.132;5.422;2023-06-22T02:15:09;102032.34;;;17.68;78.00
79617;BME280;69097;52.132;5.422;2023-06-22T02:17:36;102031.69;;;17.64;78.11
79617;BME280;69097;52.132;5.422;2023-06-22T02:20:03;102029.88;;;17.58;78.50
79617;BME280;69097;52.132;5.422;2023-06-22T02:22:35;102032.34;;;17.56;78.52
79617;BME280;69097;52.132;5.422;2023-06-22T02:25:01;102028.72;;;17.55;78.29
79617;BME280;69097;52.132;5.422;2023-06-22T02:27:28;102025.41;;;17.57;78.29
79617;BME280;69097;52.132;5.422;2023-06-22T02:29:55;102025.41;;;17.57;78.07
79617;BME280;69097;52.132;5.422;2023-06-22T02:32:21;102029.63;;;17.52;78.27
79617;BME280;69097;52.132;5.422;2023-06-22T02:34:48;102031.31;;;17.50;78.49
79617;BME280;69097;52.132;5.422;2023-06-22T02:37:14;102027.34;;;17.47;78.38
79617;BME280;69097;52.132;5.422;2023-06-22T02:39:41;102027.81;;;17.46;77.89
79617;BME280;69097;52.132;5.422;2023-06-22T02:42:08;102029.81;;;17.45;78.04
79617;BME280;69097;52.132;5.422;2023-06-22T02:44:34;102031.53;;;17.43;78.26
79617;BME280;69097;52.132;5.422;2023-06-22T02:47:01;102023.88;;;17.40;78.31
79617;BME280;69097;52.132;5.422;2023-06-22T02:49:27;102022.31;;;17.39;77.83
79617;BME280;69097;52.132;5.422;2023-06-22T02:51:54;102014.72;;;17.36;78.15
79617;BME280;69097;52.132;5.422;2023-06-22T02:54:21;102011.53;;;17.34;78.45
79617;BME280;69097;52.132;5.422;2023-06-22T02:56:48;102009.59;;;17.31;79.03
79617;BME280;69097;52.132;5.422;2023-06-22T02:59:14;102013.78;;;17.26;78.84
79617;BME280;69097;52.132;5.422;2023-06-22T03:01:41;102018.44;;;17.20;78.88
79617;BME280;69097;52.132;5.422;2023-06-22T03:04:08;102019.56;;;17.23;79.21
79617;BME280;69097;52.132;5.422;2023-06-22T03:06:36;102017.63;;;17.19;78.70
79617;BME280;69097;52.132;5.422;2023-06-22T03:09:03;102022.97;;;17.17;78.88
79617;BME280;69097;52.132;5.422;2023-06-22T03:11:32;102025.47;;;17.15;78.94
79617;BME280;69097;52.132;5.422;2023-06-22T03:14:00;102021.00;;;17.14;78.77
79617;BME280;69097;52.132;5.422;2023-06-22T03:16:27;102028.41;;;17.12;78.81
79617;BME280;69097;52.132;5.422;2023-06-22T03:18:54;102026.13;;;17.07;79.09
79617;BME280;69097;52.132;5.422;2023-06-22T03:21:22;102020.53;;;17.03;79.23
79617;BME280;69097;52.132;5.422;2023-06-22T03:23:49;102026.66;;;17.02;78.73
79617;BME280;69097;52.132;5.422;2023-06-22T03:26:19;102023.84;;;17.02;79.09
79617;BME280;69097;52.132;5.422;2023-06-22T03:28:46;102027.78;;;17.04;79.05
79617;BME280;69097;52.132;5.422;2023-06-22T03:31:12;102012.94;;;17.00;78.94
79617;BME280;69097;52.132;5.422;2023-06-22T03:33:39;101997.59;;;16.98;79.55
79617;BME280;69097;52.132;5.422;2023-06-22T03:36:05;102013.41;;;16.99;78.87
79617;BME280;69097;52.132;5.422;2023-06-22T03:38:32;102005.66;;;16.99;79.54
79617;BME280;69097;52.132;5.422;2023-06-22T03:41:00;101998.41;;;16.98;79.61
79617;BME280;69097;52.132;5.422;2023-06-22T03:43:26;102000.91;;;16.96;79.68
79617;BME280;69097;52.132;5.422;2023-06-22T03:45:53;102008.59;;;16.96;79.60
79617;BME280;69097;52.132;5.422;2023-06-22T03:48:19;102005.44;;;16.94;80.14
79617;BME280;69097;52.132;5.422;2023-06-22T03:50:46;102004.63;;;16.93;80.31
79617;BME280;69097;52.132;5.422;2023-06-22T03:53:12;102000.53;;;16.94;80.20
79617;BME280;69097;52.132;5.422;2023-06-22T03:55:48;101999.31;;;16.95;79.81
79617;BME280;69097;52.132;5.422;2023-06-22T03:58:16;101990.81;;;16.95;79.87
79617;BME280;69097;52.132;5.422;2023-06-22T04:00:49;101992.41;;;16.96;79.94
79617;BME280;69097;52.132;5.422;2023-06-22T04:03:16;101998.06;;;16.96;79.99
79617;BME280;69097;52.132;5.422;2023-06-22T04:05:45;101996.47;;;16.95;79.91
79617;BME280;69097;52.132;5.422;2023-06-22T04:08:13;101992.41;;;16.96;80.27
79617;BME280;69097;52.132;5.422;2023-06-22T04:10:40;101993.97;;;16.97;79.63
79617;BME280;69097;52.132;5.422;2023-06-22T04:13:06;101992.41;;;16.96;80.45
79617;BME280;69097;52.132;5.422;2023-06-22T04:15:33;101975.38;;;16.96;80.36
79617;BME280;69097;52.132;5.422;2023-06-22T04:18:00;101979.03;;;16.97;80.22
79617;BME280;69097;52.132;5.422;2023-06-22T04:20:26;101986.28;;;16.98;80.80
79617;BME280;69097;52.132;5.422;2023-06-22T04:22:55;101978.91;;;17.00;80.53
79617;BME280;69097;52.132;5.422;2023-06-22T04:25:22;101975.63;;;17.02;80.67
79617;BME280;69097;52.132;5.422;2023-06-22T04:27:49;101977.56;;;17.05;80.50
79617;BME280;69097;52.132;5.422;2023-06-22T04:30:15;101979.50;;;17.08;80.76
79617;BME280;69097;52.132;5.422;2023-06-22T04:32:42;101976.19;;;17.09;79.96
79617;BME280;69097;52.132;5.422;2023-06-22T04:35:10;101975.31;;;17.12;80.52
79617;BME280;69097;52.132;5.422;2023-06-22T04:37:37;101977.59;;;17.17;80.44
79617;BME280;69097;52.132;5.422;2023-06-22T04:40:05;101982.34;;;17.20;80.60
79617;BME280;69097;52.132;5.422;2023-06-22T04:42:34;101975.78;;;17.23;80.75
79617;BME280;69097;52.132;5.422;2023-06-22T04:45:01;101975.66;;;17.27;80.88
79617;BME280;69097;52.132;5.422;2023-06-22T04:47:28;101978.06;;;17.29;80.92
79617;BME280;69097;52.132;5.422;2023-06-22T04:49:54;101981.59;;;17.33;80.70
79617;BME280;69097;52.132;5.422;2023-06-22T04:52:21;101987.94;;;17.37;81.09
79617;BME280;69097;52.132;5.422;2023-06-22T04:54:48;101979.75;;;17.39;81.16
79617;BME280;69097;52.132;5.422;2023-06-22T04:57:15;101989.75;;;17.43;81.47
79617;BME280;69097;52.132;5.422;2023-06-22T04:59:42;101984.34;;;17.49;81.30
79617;BME280;69097;52.132;5.422;2023-06-22T05:02:09;101991.06;;;17.55;80.75
79617;BME280;69097;52.132;5.422;2023-06-22T05:04:36;101988.88;;;17.59;81.04
79617;BME280;69097;52.132;5.422;2023-06-22T05:07:06;101991.59;;;17.62;81.10
79617;BME280;69097;52.132;5.422;2023-06-22T05:09:34;101996.81;;;17.64;80.89
79617;BME280;69097;52.132;5.422;2023-06-22T05:12:02;101994.69;;;17.68;80.79
79617;BME280;69097;52.132;5.422;2023-06-22T05:14:29;101993.41;;;17.69;81.18
79617;BME280;69097;52.132;5.422;2023-06-22T05:16:57;101989.66;;;17.72;81.30
79617;BME280;69097;52.132;5.422;2023-06-22T05:19:30;101993.53;;;17.78;81.32
79617;BME280;69097;52.132;5.422;2023-06-22T05:22:00;101999.88;;;17.82;81.39
79617;BME280;69097;52.132;5.422;2023-06-22T05:24:27;101996.47;;;17.87;81.58
79617;BME280;69097;52.132;5.422;2023-06-22T05:26:53;101986.59;;;17.91;81.83
79617;BME280;69097;52.132;5.422;2023-06-22T05:29:20;101992.16;;;17.95;81.87
79617;BME280;69097;52.132;5.422;2023-06-22T05:31:48;101995.09;;;18.04;81.93
79617;BME280;69097;52.132;5.422;2023-06-22T05:34:15;101997.34;;;18.09;82.35
79617;BME280;69097;52.132;5.422;2023-06-22T05:36:42;101995.53;;;18.15;81.49
79617;BME280;69097;52.132;5.422;2023-06-22T05:39:11;101997.78;;;18.20;81.28
79617;BME280;69097;52.132;5.422;2023-06-22T05:41:42;101997.22;;;18.25;81.07
79617;BME280;69097;52.132;5.422;2023-06-22T05:44:10;101998.53;;;18.33;80.84
79617;BME280;69097;52.132;5.422;2023-06-22T05:46:44;102003.66;;;18.38;80.68
79617;BME280;69097;52.132;5.422;2023-06-22T05:49:13;102001.50;;;18.42;80.79
79617;BME280;69097;52.132;5.422;2023-06-22T05:51:40;101995.59;;;18.49;80.94
79617;BME280;69097;52.132;5.422;2023-06-22T05:54:07;101995.44;;;18.53;80.66
79617;BME280;69097;52.132;5.422;2023-06-22T05:56:35;101999.75;;;18.57;80.35
79617;BME280;69097;52.132;5.422;2023-06-22T05:59:02;101998.56;;;18.67;80.16
79617;BME280;69097;52.132;5.422;2023-06-22T06:01:28;101999.91;;;18.75;80.40
79617;BME280;69097;52.132;5.422;2023-06-22T06:03:55;102001.09;;;18.87;81.17
79617;BME280;69097;52.132;5.422;2023-06-22T06:06:21;102000.03;;;18.93;80.37
79617;BME280;69097;52.132;5.422;2023-06-22T06:08:49;101998.53;;;19.01;80.01
79617;BME280;69097;52.132;5.422;2023-06-22T06:11:15;102000.31;;;19.08;79.57
79617;BME280;69097;52.132;5.422;2023-06-22T06:13:42;101996.06;;;19.12;79.02
79617;BME280;69097;52.132;5.422;2023-06-22T06:16:08;102001.47;;;19.19;79.31
79617;BME280;69097;52.132;5.422;2023-06-22T06:18:35;101991.41;;;19.27;78.88
79617;BME280;69097;52.132;5.422;2023-06-22T06:21:03;101980.41;;;19.38;79.18
79617;BME280;69097;52.132;5.422;2023-06-22T06:23:29;101974.91;;;19.44;78.18
79617;BME280;69097;52.132;5.422;2023-06-22T06:25:56;101976.38;;;19.48;78.01
79617;BME280;69097;52.132;5.422;2023-06-22T06:28:24;101973.22;;;19.55;78.32
79617;BME280;69097;52.132;5.422;2023-06-22T06:30:51;101972.81;;;19.66;77.88
79617;BME280;69097;52.132;5.422;2023-06-22T06:33:19;101971.09;;;19.78;77.40
79617;BME280;69097;52.132;5.422;2023-06-22T06:35:50;101973.50;;;19.88;77.50
79617;BME280;69097;52.132;5.422;2023-06-22T06:38:16;101971.31;;;20.01;76.54
79617;BME280;69097;52.132;5.422;2023-06-22T06:40:43;101967.69;;;20.10;76.12
79617;BME280;69097;52.132;5.422;2023-06-22T06:43:11;101968.22;;;20.17;76.20
79617;BME280;69097;52.132;5.422;2023-06-22T06:45:38;101968.88;;;20.30;76.38
79617;BME280;69097;52.132;5.422;2023-06-22T06:48:04;101964.28;;;20.42;74.90
79617;BME280;69097;52.132;5.422;2023-06-22T06:50:31;101964.28;;;20.51;75.49
79617;BME280;69097;52.132;5.422;2023-06-22T06:52:58;101961.75;;;20.62;74.87
79617;BME280;69097;52.132;5.422;2023-06-22T06:55:25;101959.22;;;20.73;74.46
79617;BME280;69097;52.132;5.422;2023-06-22T06:57:52;101959.84;;;20.77;74.02
79617;BME280;69097;52.132;5.422;2023-06-22T07:00:19;101957.63;;;20.90;73.18
79617;BME280;69097;52.132;5.422;2023-06-22T07:02:45;101960.13;;;20.97;73.66
79617;BME280;69097;52.132;5.422;2023-06-22T07:05:14;101952.72;;;21.00;73.58
79617;BME280;69097;52.132;5.422;2023-06-22T07:07:41;101946.34;;;21.05;72.80
79617;BME280;69097;52.132;5.422;2023-06-22T07:10:10;101954.09;;;21.13;73.22
79617;BME280;69097;52.132;5.422;2023-06-22T07:12:37;101955.34;;;21.21;72.30
79617;BME280;69097;52.132;5.422;2023-06-22T07:15:05;101951.84;;;21.26;71.42
79617;BME280;69097;52.132;5.422;2023-06-22T07:17:34;101948.66;;;21.33;71.66
79617;BME280;69097;52.132;5.422;2023-06-22T07:20:01;101947.03;;;21.41;72.18
79617;BME280;69097;52.132;5.422;2023-06-22T07:22:31;101948.25;;;21.49;70.25
79617;BME280;69097;52.132;5.422;2023-06-22T07:24:57;101946.34;;;21.55;69.90
79617;BME280;69097;52.132;5.422;2023-06-22T07:27:24;101950.56;;;21.69;70.93
79617;BME280;69097;52.132;5.422;2023-06-22T07:29:51;101955.41;;;21.86;70.01
79617;BME280;69097;52.132;5.422;2023-06-22T07:32:17;101954.69;;;22.01;68.77
79617;BME280;69097;52.132;5.422;2023-06-22T07:34:44;101956.50;;;22.13;67.98
79617;BME280;69097;52.132;5.422;2023-06-22T07:37:10;101952.13;;;22.26;68.15
79617;BME280;69097;52.132;5.422;2023-06-22T07:39:37;101953.16;;;22.38;66.53
79617;BME280;69097;52.132;5.422;2023-06-22T07:42:04;101948.63;;;22.46;66.60
79617;BME280;69097;52.132;5.422;2023-06-22T07:44:31;101941.88;;;22.58;66.31
79617;BME280;69097;52.132;5.422;2023-06-22T07:46:57;101930.16;;;22.56;65.97
79617;BME280;69097;52.132;5.422;2023-06-22T07:49:24;101926.28;;;22.59;67.04
79617;BME280;69097;52.132;5.422;2023-06-22T07:51:50;101927.22;;;22.65;66.29
79617;BME280;69097;52.132;5.422;2023-06-22T07:54:17;101917.06;;;22.78;66.56
79617;BME280;69097;52.132;5.422;2023-06-22T07:56:43;101929.19;;;22.88;66.63
79617;BME280;69097;52.132;5.422;2023-06-22T07:59:10;101932.47;;;22.95;66.15
79617;BME280;69097;52.132;5.422;2023-06-22T08:01:36;101930.59;;;23.07;65.77
79617;BME280;69097;52.132;5.422;2023-06-22T08:04:03;101924.66;;;23.25;65.56
79617;BME280;69097;52.132;5.422;2023-06-22T08:06:30;101921.00;;;23.39;64.24
79617;BME280;69097;52.132;5.422;2023-06-22T08:08:57;101915.84;;;23.43;64.49
79617;BME280;69097;52.132;5.422;2023-06-22T08:11:25;101904.56;;;23.54;63.70
79617;BME280;69097;52.132;5.422;2023-06-22T08:13:52;101902.06;;;23.62;63.69
79617;BME280;69097;52.132;5.422;2023-06-22T08:16:18;101892.06;;;23.72;62.83
79617;BME280;69097;52.132;5.422;2023-06-22T08:18:45;101896.75;;;23.89;63.05
79617;BME280;69097;52.132;5.422;2023-06-22T08:21:12;101885.19;;;23.98;62.05
79617;BME280;69097;52.132;5.422;2023-06-22T08:23:38;101886.31;;;24.06;62.22
79617;BME280;69097;52.132;5.422;2023-06-22T08:26:05;101892.25;;;24.23;61.67
79617;BME280;69097;52.132;5.422;2023-06-22T08:28:31;101887.59;;;24.25;60.50
79617;BME280;69097;52.132;5.422;2023-06-22T08:30:59;101873.19;;;24.20;61.67
79617;BME280;69097;52.132;5.422;2023-06-22T08:33:28;101861.22;;;24.21;61.27
79617;BME280;69097;52.132;5.422;2023-06-22T08:35:55;101860.78;;;24.28;60.18
79617;BME280;69097;52.132;5.422;2023-06-22T08:38:22;101864.91;;;24.27;59.45
79617;BME280;69097;52.132;5.422;2023-06-22T08:40:48;101862.50;;;24.20;59.14
79617;BME280;69097;52.132;5.422;2023-06-22T08:43:15;101858.06;;;24.19;59.94
79617;BME280;69097;52.132;5.422;2023-06-22T08:45:41;101864.69;;;24.31;60.86
79617;BME280;69097;52.132;5.422;2023-06-22T08:48:09;101850.66;;;24.33;58.02
79617;BME280;69097;52.132;5.422;2023-06-22T08:50:36;101850.44;;;24.37;57.37
79617;BME280;69097;52.132;5.422;2023-06-22T08:53:02;101855.78;;;24.49;56.68
79617;BME280;69097;52.132;5.422;2023-06-22T08:55:29;101853.38;;;24.68;56.95
79617;BME280;69097;52.132;5.422;2023-06-22T08:57:56;101844.19;;;24.89;57.23
79617;BME280;69097;52.132;5.422;2023-06-22T09:00:22;101853.22;;;25.08;55.12
79617;BME280;69097;52.132;5.422;2023-06-22T09:02:49;101851.16;;;25.14;55.00
79617;BME280;69097;52.132;5.422;2023-06-22T09:05:16;101854.50;;;25.07;56.18
79617;BME280;69097;52.132;5.422;2023-06-22T09:07:42;101850.81;;;25.01;54.86
79617;BME280;69097;52.132;5.422;2023-06-22T09:10:09;101852.38;;;25.02;55.82
79617;BME280;69097;52.132;5.422;2023-06-22T09:12:36;101846.34;;;25.00;55.63
79617;BME280;69097;52.132;5.422;2023-06-22T09:15:06;101843.31;;;25.09;55.77
79617;BME280;69097;52.132;5.422;2023-06-22T09:17:38;101849.16;;;25.20;54.92
79617;BME280;69097;52.132;5.422;2023-06-22T09:20:05;101850.25;;;25.28;55.12
79617;BME280;69097;52.132;5.422;2023-06-22T09:22:34;101840.34;;;25.34;54.16
79617;BME280;69097;52.132;5.422;2023-06-22T09:25:00;101833.09;;;25.39;54.28
79617;BME280;69097;52.132;5.422;2023-06-22T09:27:27;101836.53;;;25.43;54.77
79617;BME280;69097;52.132;5.422;2023-06-22T09:29:53;101843.59;;;25.47;52.68
79617;BME280;69097;52.132;5.422;2023-06-22T09:32:20;101844.97;;;25.58;52.43
79617;BME280;69097;52.132;5.422;2023-06-22T09:34:46;101842.97;;;25.75;52.82
79617;BME280;69097;52.132;5.422;2023-06-22T09:37:13;101845.44;;;25.98;53.53
79617;BME280;69097;52.132;5.422;2023-06-22T09:39:39;101845.53;;;26.09;51.53
79617;BME280;69097;52.132;5.422;2023-06-22T09:42:06;101839.50;;;26.07;50.99
79617;BME280;69097;52.132;5.422;2023-06-22T09:44:32;101845.53;;;26.20;52.47
79617;BME280;69097;52.132;5.422;2023-06-22T09:46:59;101836.13;;;26.25;49.73
79617;BME280;69097;52.132;5.422;2023-06-22T09:49:28;101840.81;;;26.17;50.45
79617;BME280;69097;52.132;5.422;2023-06-22T09:52:13;101837.94;;;26.12;51.23
79617;BME280;69097;52.132;5.422;2023-06-22T09:54:41;101829.19;;;25.90;50.59
79617;BME280;69097;52.132;5.422;2023-06-22T09:57:08;101832.78;;;25.74;52.03
79617;BME280;69097;52.132;5.422;2023-06-22T09:59:35;101833.78;;;25.65;52.62
79617;BME280;69097;52.132;5.422;2023-06-22T10:02:02;101835.56;;;25.57;52.99
79617;BME280;69097;52.132;5.422;2023-06-22T10:04:28;101825.56;;;25.41;51.75
79617;BME280;69097;52.132;5.422;2023-06-22T10:06:57;101833.28;;;25.30;53.32
79617;BME280;69097;52.132;5.422;2023-06-22T10:09:24;101836.84;;;25.19;53.60
79617;BME280;69097;52.132;5.422;2023-06-22T10:11:50;101844.91;;;25.10;53.41
79617;BME280;69097;52.132;5.422;2023-06-22T10:14:17;101843.47;;;25.00;54.25
79617;BME280;69097;52.132;5.422;2023-06-22T10:16:44;101829.03;;;24.89;54.06
79617;BME280;69097;52.132;5.422;2023-06-22T10:19:11;101826.34;;;24.80;51.63
79617;BME280;69097;52.132;5.422;2023-06-22T10:21:38;101826.53;;;24.71;52.13
79617;BME280;69097;52.132;5.422;2023-06-22T10:24:04;101825.66;;;24.65;52.64
79617;BME280;69097;52.132;5.422;2023-06-22T10:26:35;101829.25;;;24.60;54.41
79617;BME280;69097;52.132;5.422;2023-06-22T10:29:02;101832.34;;;24.56;55.75
79617;BME280;69097;52.132;5.422;2023-06-22T10:31:32;101829.47;;;24.51;54.38
79617;BME280;69097;52.132;5.422;2023-06-22T10:33:59;101840.88;;;24.45;54.64
79617;BME280;69097;52.132;5.422;2023-06-22T10:36:26;101833.28;;;24.42;55.03
79617;BME280;69097;52.132;5.422;2023-06-22T10:38:52;101836.09;;;24.37;54.90
79617;BME280;69097;52.132;5.422;2023-06-22T10:41:19;101840.25;;;24.36;54.95
79617;BME280;69097;52.132;5.422;2023-06-22T10:43:46;101842.31;;;24.35;54.99
79617;BME280;69097;52.132;5.422;2023-06-22T10:46:12;101833.44;;;24.33;55.39
79617;BME280;69097;52.132;5.422;2023-06-22T10:48:39;101831.28;;;24.28;55.10
79617;BME280;69097;52.132;5.422;2023-06-22T10:51:05;101835.47;;;24.27;56.10
79617;BME280;69097;52.132;5.422;2023-06-22T10:53:32;101833.09;;;24.25;54.84
79617;BME280;69097;52.132;5.422;2023-06-22T10:55:59;101838.84;;;24.25;55.59
79617;BME280;69097;52.132;5.422;2023-06-22T10:58:25;101833.38;;;24.27;56.32
79617;BME280;69097;52.132;5.422;2023-06-22T11:00:52;101833.88;;;24.26;56.43
79617;BME280;69097;52.132;5.422;2023-06-22T11:03:19;101838.84;;;24.25;56.36
79617;BME280;69097;52.132;5.422;2023-06-22T11:05:46;101833.38;;;24.27;55.75
79617;BME280;69097;52.132;5.422;2023-06-22T11:08:14;101830.28;;;24.31;57.24
79617;BME280;69097;52.132;5.422;2023-06-22T11:10:41;101827.19;;;24.34;55.32
79617;BME280;69097;52.132;5.422;2023-06-22T11:13:07;101825.69;;;24.39;54.74
79617;BME280;69097;52.132;5.422;2023-06-22T11:15:38;101827.31;;;24.46;57.34
79617;BME280;69097;52.132;5.422;2023-06-22T11:18:05;101823.97;;;24.53;57.34
79617;BME280;69097;52.132;5.422;2023-06-22T11:20:33;101820.13;;;24.56;56.39
79617;BME280;69097;52.132;5.422;2023-06-22T11:23:05;101817.78;;;24.60;55.34
79617;BME280;69097;52.132;5.422;2023-06-22T11:25:34;101821.75;;;24.62;56.24
79617;BME280;69097;52.132;5.422;2023-06-22T11:28:02;101818.94;;;24.68;57.07
79617;BME280;69097;52.132;5.422;2023-06-22T11:30:29;101812.19;;;24.71;56.23
79617;BME280;69097;52.132;5.422;2023-06-22T11:32:58;101812.72;;;24.75;56.94
79617;BME280;69097;52.132;5.422;2023-06-22T11:35:25;101808.59;;;24.76;58.04
79617;BME280;69097;52.132;5.422;2023-06-22T11:37:52;101801.25;;;24.75;57.19
79617;BME280;69097;52.132;5.422;2023-06-22T11:40:19;101804.41;;;24.77;58.92
79617;BME280;69097;52.132;5.422;2023-06-22T11:42:45;101795.00;;;24.76;57.87
79617;BME280;69097;52.132;5.422;2023-06-22T11:45:12;101798.94;;;24.79;58.62
79617;BME280;69097;52.132;5.422;2023-06-22T11:47:38;101787.94;;;24.72;57.57
79617;BME280;69097;52.132;5.422;2023-06-22T11:50:06;101789.22;;;24.71;57.36
79617;BME280;69097;52.132;5.422;2023-06-22T11:52:33;101784.78;;;24.70;57.75
79617;BME280;69097;52.132;5.422;2023-06-22T11:55:02;101785.06;;;24.72;57.91
79617;BME280;69097;52.132;5.422;2023-06-22T11:57:30;101784.59;;;24.79;59.58
79617;BME280;69097;52.132;5.422;2023-06-22T11:59:56;101785.16;;;24.83;57.65
79617;BME280;69097;52.132;5.422;2023-06-22T12:02:23;101783.81;;;24.78;58.22
79617;BME280;69097;52.132;5.422;2023-06-22T12:04:49;101783.81;;;24.78;56.56
79617;BME280;69097;52.132;5.422;2023-06-22T12:07:18;101782.97;;;24.72;57.48
79617;BME280;69097;52.132;5.422;2023-06-22T12:09:45;101779.81;;;24.70;57.59
79617;BME280;69097;52.132;5.422;2023-06-22T12:12:11;101775.94;;;24.73;58.30
79617;BME280;69097;52.132;5.422;2023-06-22T12:14:38;101779.03;;;24.70;58.55
79617;BME280;69097;52.132;5.422;2023-06-22T12:17:04;101771.72;;;24.69;58.92
79617;BME280;69097;52.132;5.422;2023-06-22T12:19:31;101773.25;;;24.64;58.23
79617;BME280;69097;52.132;5.422;2023-06-22T12:21:57;101769.28;;;24.62;58.70
79617;BME280;69097;52.132;5.422;2023-06-22T12:24:24;101777.63;;;24.60;59.02
79617;BME280;69097;52.132;5.422;2023-06-22T12:26:50;101775.25;;;24.58;59.02
79617;BME280;69097;52.132;5.422;2023-06-22T12:29:20;101770.25;;;24.53;60.46
79617;BME280;69097;52.132;5.422;2023-06-22T12:31:46;101768.34;;;24.45;61.61
79617;BME280;69097;52.132;5.422;2023-06-22T12:34:13;101764.09;;;24.34;63.23
79617;BME280;69097;52.132;5.422;2023-06-22T12:36:39;101756.94;;;24.24;62.95
79617;BME280;69097;52.132;5.422;2023-06-22T12:39:06;101762.34;;;24.17;63.45
79617;BME280;69097;52.132;5.422;2023-06-22T12:41:32;101757.50;;;24.03;66.37
79617;BME280;69097;52.132;5.422;2023-06-22T12:43:59;101760.28;;;23.97;65.73
79617;BME280;69097;52.132;5.422;2023-06-22T12:46:25;101761.81;;;23.93;66.50
79617;BME280;69097;52.132;5.422;2023-06-22T12:48:52;101756.28;;;23.89;67.98
79617;BME280;69097;52.132;5.422;2023-06-22T12:51:22;101764.31;;;23.85;68.63
79617;BME280;69097;52.132;5.422;2023-06-22T12:53:48;101757.72;;;23.79;66.01
79617;BME280;69097;52.132;5.422;2023-06-22T12:56:15;101754.03;;;23.73;63.15